createdAt,value
2023-01-19T00:00:48.459Z,37.70
2023-01-19T00:01:48.437Z,40.70
2023-01-19T00:02:48.452Z,44.40
2023-01-19T00:03:48.303Z,36.70
2023-01-19T00:04:48.259Z,40.00
2023-01-19T00:05:48.244Z,41.10
2023-01-19T00:06:48.125Z,34.90
2023-01-19T00:07:48.057Z,46.00
2023-01-19T00:08:48.040Z,32.90
2023-01-19T00:09:47.937Z,30.10
2023-01-19T00:10:47.850Z,31.60
2023-01-19T00:11:47.812Z,36.60
2023-01-19T00:12:47.749Z,40.70
2023-01-19T00:13:47.654Z,32.80
2023-01-19T00:17:06.052Z,27.20
2023-01-19T00:18:08.038Z,35.20
2023-01-19T00:19:06.943Z,33.50
2023-01-19T00:20:06.868Z,34.80
2023-01-19T00:21:06.811Z,27.50
2023-01-19T00:22:06.703Z,32.70
2023-01-19T00:23:06.610Z,31.50
2023-01-19T00:24:06.565Z,41.50
2023-01-19T00:25:06.535Z,34.50
2023-01-19T00:26:06.428Z,31.10
2023-01-19T00:27:06.468Z,23.30
2023-01-19T00:28:06.311Z,32.00
2023-01-19T00:29:06.270Z,30.80
2023-01-19T00:30:06.222Z,26.60
2023-01-19T00:31:06.167Z,28.40
2023-01-19T00:34:24.484Z,30.90
2023-01-19T00:35:25.465Z,30.00
2023-01-19T00:36:25.367Z,35.90
2023-01-19T00:37:25.283Z,23.20
2023-01-19T00:38:25.260Z,24.70
2023-01-19T00:39:25.223Z,33.30
2023-01-19T00:40:25.106Z,25.80
2023-01-19T00:41:25.078Z,28.90
2023-01-19T00:42:25.048Z,24.30
2023-01-19T00:43:24.936Z,22.60
2023-01-19T00:44:24.852Z,30.60
2023-01-19T00:45:24.895Z,22.60
2023-01-19T00:46:24.735Z,32.10
2023-01-19T00:47:24.675Z,27.50
2023-01-19T00:48:24.594Z,29.10
2023-01-19T00:49:24.555Z,25.10
2023-01-19T00:50:24.484Z,31.50
2023-01-19T00:51:48.108Z,24.80
2023-01-19T00:52:24.379Z,30.50
2023-01-19T00:53:24.290Z,23.50
2023-01-19T00:54:24.625Z,28.60
2023-01-19T00:55:24.172Z,28.20
2023-01-19T00:56:24.081Z,26.40
2023-01-19T00:57:24.049Z,22.80
2023-01-19T00:58:23.972Z,39.90
2023-01-19T00:59:23.937Z,28.90
2023-01-19T01:00:23.916Z,23.30
2023-01-19T01:01:50.243Z,28.00
2023-01-19T01:02:23.986Z,32.00
2023-01-19T01:03:23.770Z,28.00
2023-01-19T01:04:23.622Z,28.30
2023-01-19T01:05:23.578Z,24.60
2023-01-19T01:06:23.422Z,27.10
2023-01-19T01:07:23.383Z,29.60
2023-01-19T01:08:23.287Z,30.40
2023-01-19T01:09:27.279Z,31.40
2023-01-19T01:10:23.259Z,24.40
2023-01-19T01:11:23.183Z,26.60
2023-01-19T01:12:23.164Z,25.00
2023-01-19T01:13:26.243Z,25.40
2023-01-19T01:14:22.978Z,33.30
2023-01-19T01:15:22.944Z,26.70
2023-01-19T01:16:22.886Z,31.00
2023-01-19T01:17:22.764Z,28.80
2023-01-19T01:18:22.700Z,24.40
2023-01-19T01:19:22.668Z,29.40
2023-01-19T01:20:22.611Z,23.00
2023-01-19T01:21:22.508Z,25.40
2023-01-19T01:22:22.446Z,22.70
2023-01-19T01:23:22.409Z,32.10
2023-01-19T01:24:22.315Z,24.50
2023-01-19T01:25:22.223Z,27.00
2023-01-19T01:26:22.194Z,34.80
2023-01-19T01:29:40.514Z,27.30
2023-01-19T01:30:41.420Z,32.40
2023-01-19T01:31:41.419Z,36.00
2023-01-19T01:32:41.306Z,27.50
2023-01-19T01:33:41.899Z,27.20
2023-01-19T01:34:41.157Z,24.70
2023-01-19T01:35:41.094Z,27.40
2023-01-19T01:36:41.048Z,30.00
2023-01-19T01:37:41.077Z,23.50
2023-01-19T01:38:40.993Z,25.20
2023-01-19T01:39:40.905Z,27.80
2023-01-19T01:40:40.849Z,23.70
2023-01-19T01:41:40.726Z,25.80
2023-01-19T01:42:40.727Z,28.90
2023-01-19T01:43:40.628Z,26.10
2023-01-19T01:44:40.620Z,24.30
2023-01-19T01:45:40.560Z,20.50
2023-01-19T01:46:40.453Z,24.50
2023-01-19T01:47:40.402Z,22.30
2023-01-19T01:48:40.305Z,25.00
2023-01-19T01:49:40.239Z,22.10
2023-01-19T01:50:40.150Z,21.90
2023-01-19T01:51:40.143Z,26.30
2023-01-19T01:53:53.588Z,22.90
2023-01-19T01:54:50.215Z,24.30
2023-01-19T01:55:50.082Z,23.30
2023-01-19T01:56:50.050Z,20.70
2023-01-19T01:57:50.070Z,25.00
2023-01-19T01:58:49.990Z,20.70
2023-01-19T01:59:49.953Z,20.30
2023-01-19T02:00:49.979Z,24.30
2023-01-19T02:01:49.817Z,25.50
2023-01-19T02:02:49.702Z,25.70
2023-01-19T02:07:07.615Z,20.40
2023-01-19T02:08:08.584Z,24.20
2023-01-19T02:09:08.546Z,19.50
2023-01-19T02:10:08.443Z,25.60
2023-01-19T02:11:08.395Z,20.50
2023-01-19T02:12:08.288Z,22.10
2023-01-19T02:13:08.225Z,24.10
2023-01-19T02:14:08.170Z,21.70
2023-01-19T02:15:08.058Z,23.80
2023-01-19T02:16:08.013Z,25.20
2023-01-19T02:17:07.959Z,22.30
2023-01-19T02:18:07.851Z,21.80
2023-01-19T02:19:07.818Z,26.60
2023-01-19T02:20:07.742Z,20.40
2023-01-19T02:21:07.747Z,20.70
2023-01-19T02:22:07.628Z,19.40
2023-01-19T02:23:08.050Z,22.20
2023-01-19T02:24:07.530Z,20.40
2023-01-19T02:25:07.557Z,25.90
2023-01-19T02:26:07.460Z,20.50
2023-01-19T02:27:07.363Z,20.40
2023-01-19T02:28:07.298Z,26.20
2023-01-19T02:29:07.887Z,19.10
2023-01-19T02:30:07.230Z,20.50
2023-01-19T02:31:07.149Z,24.30
2023-01-19T02:32:07.070Z,23.60
2023-01-19T02:33:07.008Z,24.10
2023-01-19T02:34:06.924Z,20.30
2023-01-19T02:35:06.904Z,28.10
2023-01-19T02:36:06.786Z,21.30
2023-01-19T02:37:06.866Z,22.60
2023-01-19T02:38:06.694Z,22.10
2023-01-19T02:39:06.639Z,22.30
2023-01-19T02:40:06.594Z,26.40
2023-01-19T02:41:07.687Z,24.40
2023-01-19T02:42:06.411Z,26.90
2023-01-19T02:43:06.416Z,22.90
2023-01-19T02:44:06.274Z,21.30
2023-01-19T02:45:06.246Z,33.40
2023-01-19T02:46:06.238Z,33.90
2023-01-19T02:47:06.085Z,22.30
2023-01-19T02:48:06.085Z,21.30
2023-01-19T02:49:05.936Z,28.90
2023-01-19T02:50:05.889Z,23.90
2023-01-19T02:51:05.913Z,28.00
2023-01-19T02:52:05.720Z,26.60
2023-01-19T02:53:05.701Z,28.20
2023-01-19T02:54:05.653Z,20.40
2023-01-19T02:55:05.505Z,25.80
2023-01-19T02:56:05.501Z,31.20
2023-01-19T02:57:05.423Z,35.80
2023-01-19T02:58:05.387Z,32.70
2023-01-19T03:03:42.195Z,38.60
2023-01-19T03:04:43.112Z,28.20
2023-01-19T03:05:43.001Z,27.50
2023-01-19T03:06:42.957Z,32.90
2023-01-19T03:07:42.952Z,37.20
2023-01-19T03:08:43.654Z,22.90
2023-01-19T03:09:42.805Z,22.00
2023-01-19T03:10:42.762Z,30.50
2023-01-19T03:11:42.692Z,32.70
2023-01-19T03:12:42.665Z,28.10
2023-01-19T03:13:42.574Z,25.00
2023-01-19T03:14:42.454Z,26.50
2023-01-19T03:15:42.469Z,30.40
2023-01-19T03:16:42.310Z,34.00
2023-01-19T03:17:42.304Z,32.40
2023-01-19T03:18:42.189Z,28.70
2023-01-19T03:19:42.156Z,23.20
2023-01-19T03:20:42.109Z,30.80
2023-01-19T03:21:41.994Z,27.50
2023-01-19T03:22:41.970Z,34.10
2023-01-19T03:23:41.897Z,26.90
2023-01-19T03:24:41.844Z,25.10
2023-01-19T03:25:41.770Z,30.90
2023-01-19T03:26:41.735Z,25.10
2023-01-19T03:27:41.606Z,23.90
2023-01-19T03:28:41.597Z,23.30
2023-01-19T03:29:41.494Z,28.80
2023-01-19T03:30:41.476Z,28.50
2023-01-19T03:31:41.386Z,28.20
2023-01-19T03:32:41.338Z,25.20
2023-01-19T03:33:41.262Z,36.30
2023-01-19T03:34:41.170Z,24.70
2023-01-19T03:35:41.136Z,38.00
2023-01-19T03:36:41.062Z,22.70
2023-01-19T03:37:40.993Z,29.60
2023-01-19T03:38:40.935Z,26.50
2023-01-19T03:39:41.661Z,28.30
2023-01-19T03:40:40.883Z,30.80
2023-01-19T03:41:40.765Z,34.40
2023-01-19T03:42:41.655Z,23.60
2023-01-19T03:43:40.642Z,31.30
2023-01-19T03:44:40.592Z,30.60
2023-01-19T03:45:40.528Z,34.00
2023-01-19T03:46:40.436Z,24.80
2023-01-19T03:47:40.412Z,33.60
2023-01-19T03:48:40.356Z,27.20
2023-01-19T03:49:40.328Z,30.20
2023-01-19T03:50:40.295Z,35.30
2023-01-19T03:51:40.129Z,27.60
2023-01-19T03:52:40.085Z,33.70
2023-01-19T03:53:40.040Z,27.90
2023-01-19T03:54:40.007Z,28.70
2023-01-19T03:55:39.948Z,33.80
2023-01-19T03:56:39.884Z,32.10
2023-01-19T03:57:39.817Z,34.40
2023-01-19T03:58:39.673Z,35.40
2023-01-19T03:59:39.674Z,31.40
2023-01-19T04:00:39.603Z,39.50
2023-01-19T04:01:39.559Z,26.40
2023-01-19T04:02:39.445Z,34.90
2023-01-19T04:03:39.416Z,31.00
2023-01-19T04:04:39.373Z,34.90
2023-01-19T04:05:39.255Z,32.50
2023-01-19T04:06:39.195Z,29.30
2023-01-19T04:07:39.097Z,33.30
2023-01-19T04:08:39.316Z,28.40
2023-01-19T04:09:39.024Z,35.00
2023-01-19T04:10:38.936Z,32.80
2023-01-19T04:11:38.847Z,38.30
2023-01-19T04:12:38.828Z,45.10
2023-01-19T04:13:38.744Z,30.70
2023-01-19T04:14:38.741Z,32.30
2023-01-19T04:15:38.673Z,26.00
2023-01-19T04:16:38.551Z,31.50
2023-01-19T04:17:38.494Z,25.80
2023-01-19T04:18:38.413Z,26.30
2023-01-19T04:19:38.395Z,37.20
2023-01-19T04:20:38.343Z,31.40
2023-01-19T04:21:38.306Z,39.90
2023-01-19T04:22:38.175Z,34.20
2023-01-19T04:23:38.133Z,32.30
2023-01-19T04:24:38.076Z,36.30
2023-01-19T04:25:38.990Z,38.50
2023-01-19T04:28:56.348Z,32.20
2023-01-19T04:29:57.329Z,35.00
2023-01-19T04:30:57.307Z,48.10
2023-01-19T04:31:57.194Z,36.10
2023-01-19T04:32:57.084Z,61.70
2023-01-19T04:33:57.077Z,35.70
2023-01-19T04:34:56.975Z,61.60
2023-01-19T04:35:56.935Z,35.60
2023-01-19T04:36:56.855Z,38.80
2023-01-19T04:37:56.785Z,30.80
2023-01-19T04:38:56.695Z,43.30
2023-01-19T04:39:56.700Z,47.20
2023-01-19T04:40:56.594Z,37.00
2023-01-19T04:41:56.515Z,41.90
2023-01-19T04:42:56.469Z,34.60
2023-01-19T04:43:56.391Z,40.10
2023-01-19T04:44:56.397Z,49.90
2023-01-19T04:46:00.289Z,42.40
2023-01-19T04:46:56.185Z,32.30
2023-01-19T04:47:56.149Z,29.80
2023-01-19T04:48:56.061Z,33.70
2023-01-19T04:49:56.048Z,40.30
2023-01-19T04:50:56.000Z,31.80
2023-01-19T04:51:55.909Z,38.00
2023-01-19T04:52:55.840Z,36.80
2023-01-19T04:53:55.863Z,47.10
2023-01-19T04:54:55.724Z,37.60
2023-01-19T04:55:55.662Z,33.70
2023-01-19T04:56:55.607Z,45.00
2023-01-19T04:57:55.515Z,42.10
2023-01-19T04:58:55.430Z,45.50
2023-01-19T04:59:55.382Z,51.40
2023-01-19T05:00:55.325Z,37.20
2023-01-19T05:01:55.368Z,36.10
2023-01-19T05:02:55.246Z,44.00
2023-01-19T05:03:55.150Z,51.50
2023-01-19T05:04:55.032Z,46.30
2023-01-19T05:05:54.975Z,43.60
2023-01-19T05:06:54.930Z,41.10
2023-01-19T05:07:54.827Z,43.60
2023-01-19T05:08:54.804Z,41.40
2023-01-19T05:09:54.805Z,33.00
2023-01-19T05:10:54.692Z,38.60
2023-01-19T05:11:54.608Z,37.50
2023-01-19T05:12:54.553Z,32.90
2023-01-19T05:13:54.502Z,39.60
2023-01-19T05:14:54.460Z,30.00
2023-01-19T05:15:54.367Z,37.40
2023-01-19T05:16:54.271Z,46.20
2023-01-19T05:17:54.177Z,33.80
2023-01-19T05:18:54.089Z,36.40
2023-01-19T05:19:54.041Z,48.10
2023-01-19T05:20:54.012Z,34.00
2023-01-19T05:25:03.011Z,34.10
2023-01-19T05:26:03.939Z,30.50
2023-01-19T05:27:03.780Z,28.70
2023-01-19T05:28:03.754Z,37.50
2023-01-19T05:29:03.667Z,35.20
2023-01-19T05:30:03.692Z,36.10
2023-01-19T05:31:03.775Z,47.10
2023-01-19T05:32:03.589Z,39.20
2023-01-19T05:33:03.799Z,33.30
2023-01-19T05:34:03.477Z,44.80
2023-01-19T05:35:03.374Z,34.90
2023-01-19T05:36:03.349Z,39.00
2023-01-19T05:37:03.244Z,32.70
2023-01-19T05:38:03.151Z,41.60
2023-01-19T05:39:03.112Z,32.40
2023-01-19T05:40:24.022Z,42.00
2023-01-19T05:41:02.934Z,31.60
2023-01-19T05:42:02.931Z,32.60
2023-01-19T05:43:03.206Z,32.20
2023-01-19T05:44:02.711Z,36.50
2023-01-19T05:45:02.712Z,27.60
2023-01-19T05:46:02.642Z,36.00
2023-01-19T05:47:02.566Z,37.60
2023-01-19T05:48:02.546Z,29.30
2023-01-19T05:49:02.406Z,33.30
2023-01-19T05:50:02.375Z,26.10
2023-01-19T05:51:02.284Z,29.20
2023-01-19T05:52:02.291Z,29.80
2023-01-19T05:53:02.519Z,33.10
2023-01-19T05:54:02.077Z,34.10
2023-01-19T05:55:02.035Z,30.20
2023-01-19T05:56:01.929Z,29.20
2023-01-19T05:57:01.858Z,31.80
2023-01-19T06:00:21.334Z,39.60
2023-01-19T06:01:22.282Z,26.40
2023-01-19T06:02:22.121Z,38.90
2023-01-19T06:03:22.136Z,38.10
2023-01-19T06:04:22.083Z,29.50
2023-01-19T06:05:21.990Z,37.00
2023-01-19T06:06:21.883Z,29.00
2023-01-19T06:07:23.836Z,39.40
2023-01-19T06:08:21.788Z,30.60
2023-01-19T06:09:21.708Z,32.90
2023-01-19T06:10:21.606Z,38.20
2023-01-19T06:11:21.837Z,34.10
2023-01-19T06:12:21.544Z,29.80
2023-01-19T06:13:21.442Z,33.40
2023-01-19T06:14:21.446Z,37.20
2023-01-19T06:15:21.329Z,35.60
2023-01-19T06:16:21.252Z,34.50
2023-01-19T06:19:39.649Z,25.60
2023-01-19T06:20:40.509Z,27.60
2023-01-19T06:21:40.457Z,37.10
2023-01-19T06:22:40.423Z,33.20
2023-01-19T06:23:40.354Z,25.90
2023-01-19T06:24:40.292Z,30.80
2023-01-19T06:25:40.173Z,27.80
2023-01-19T06:26:40.118Z,28.90
2023-01-19T06:27:40.089Z,30.80
2023-01-19T06:28:40.025Z,46.20
2023-01-19T06:30:01.148Z,31.90
2023-01-19T06:30:39.896Z,31.00
2023-01-19T06:31:39.935Z,41.80
2023-01-19T06:32:39.703Z,29.80
2023-01-19T06:33:39.736Z,40.20
2023-01-19T06:34:39.602Z,31.20
2023-01-19T06:35:41.966Z,38.90
2023-01-19T06:36:39.563Z,32.40
2023-01-19T06:37:39.423Z,31.70
2023-01-19T06:38:39.382Z,31.30
2023-01-19T06:39:39.312Z,39.30
2023-01-19T06:40:39.220Z,26.80
2023-01-19T06:41:39.193Z,41.60
2023-01-19T06:42:39.126Z,25.40
2023-01-19T06:43:39.042Z,26.00
2023-01-19T06:44:38.992Z,34.00
2023-01-19T06:45:38.920Z,26.00
2023-01-19T06:46:38.845Z,32.70
2023-01-19T06:47:38.912Z,30.80
2023-01-19T06:48:38.706Z,36.00
2023-01-19T06:49:38.650Z,24.40
2023-01-19T06:50:38.580Z,29.10
2023-01-19T06:51:38.550Z,27.90
2023-01-19T06:52:38.445Z,26.60
2023-01-19T06:53:39.643Z,28.00
2023-01-19T06:54:38.488Z,37.20
2023-01-19T06:55:38.295Z,31.90
2023-01-19T06:56:38.217Z,24.10
2023-01-19T06:57:38.146Z,30.70
2023-01-19T06:58:38.088Z,24.50
2023-01-19T06:59:38.027Z,30.00
2023-01-19T07:00:38.450Z,24.80
2023-01-19T07:01:38.033Z,36.40
2023-01-19T07:02:38.544Z,25.80
2023-01-19T07:03:37.782Z,23.20
2023-01-19T07:04:39.454Z,24.70
2023-01-19T07:05:38.085Z,27.10
2023-01-19T07:06:37.543Z,33.20
2023-01-19T07:07:37.512Z,29.60
2023-01-19T07:08:37.553Z,32.40
2023-01-19T07:09:37.380Z,33.40
2023-01-19T07:11:25.880Z,26.40
2023-01-19T07:13:55.865Z,38.00
2023-01-19T07:14:56.589Z,36.90
2023-01-19T07:15:56.485Z,27.90
2023-01-19T07:16:56.765Z,30.30
2023-01-19T07:17:56.596Z,35.80
2023-01-19T07:18:56.278Z,32.30
2023-01-19T07:19:56.243Z,35.10
2023-01-19T07:20:56.180Z,27.60
2023-01-19T07:21:56.265Z,25.90
2023-01-19T07:22:56.008Z,30.10
2023-01-19T07:23:55.967Z,28.80
2023-01-19T07:24:55.921Z,29.40
2023-01-19T07:25:55.826Z,32.90
2023-01-19T07:26:55.783Z,27.10
2023-01-19T07:27:56.589Z,28.20
2023-01-19T07:28:55.687Z,26.30
2023-01-19T07:29:55.584Z,29.30
2023-01-19T07:30:55.633Z,24.00
2023-01-19T07:31:56.168Z,36.00
2023-01-19T07:32:55.996Z,24.00
2023-01-19T07:33:55.301Z,30.00
2023-01-19T07:34:55.284Z,29.00
2023-01-19T07:35:55.361Z,31.20
2023-01-19T07:36:55.293Z,29.60
2023-01-19T07:37:55.143Z,30.90
2023-01-19T07:38:55.032Z,26.50
2023-01-19T07:39:54.959Z,34.90
2023-01-19T07:40:54.946Z,22.80
2023-01-19T07:41:54.854Z,27.10
2023-01-19T07:42:54.773Z,28.70
2023-01-19T07:43:54.694Z,21.90
2023-01-19T07:44:54.625Z,26.30
2023-01-19T07:45:54.626Z,27.50
2023-01-19T07:46:54.533Z,23.70
2023-01-19T07:47:54.438Z,22.70
2023-01-19T07:52:12.406Z,21.40
2023-01-19T07:53:13.345Z,23.70
2023-01-19T07:54:13.243Z,26.60
2023-01-19T07:55:16.395Z,27.00
2023-01-19T07:56:13.207Z,33.00
2023-01-19T07:57:13.100Z,22.80
2023-01-19T07:58:13.004Z,30.10
2023-01-19T07:59:12.909Z,25.90
2023-01-19T08:00:13.817Z,25.00
2023-01-19T08:01:12.926Z,26.70
2023-01-19T08:02:12.901Z,28.30
2023-01-19T08:03:12.658Z,29.00
2023-01-19T08:04:12.703Z,25.60
2023-01-19T08:05:12.536Z,39.60
2023-01-19T08:06:12.514Z,32.80
2023-01-19T08:07:12.425Z,27.90
2023-01-19T08:08:12.422Z,26.40
2023-01-19T08:09:12.302Z,25.80
2023-01-19T08:10:12.271Z,27.60
2023-01-19T08:11:12.163Z,24.30
2023-01-19T08:12:12.105Z,23.50
2023-01-19T08:13:12.106Z,26.00
2023-01-19T08:14:12.438Z,22.10
2023-01-19T08:15:11.907Z,27.00
2023-01-19T08:16:11.884Z,30.80
2023-01-19T08:17:11.798Z,22.10
2023-01-19T08:18:11.775Z,22.40
2023-01-19T08:19:11.683Z,23.90
2023-01-19T08:20:11.676Z,21.50
2023-01-19T08:21:11.584Z,22.50
2023-01-19T08:22:11.504Z,24.10
2023-01-19T08:23:11.454Z,23.00
2023-01-19T08:24:11.625Z,22.10
2023-01-19T08:25:11.497Z,27.80
2023-01-19T08:26:12.490Z,27.00
2023-01-19T08:27:11.892Z,29.80
2023-01-19T08:28:11.294Z,25.40
2023-01-19T08:29:11.883Z,23.60
2023-01-19T08:30:10.989Z,27.70
2023-01-19T08:31:20.169Z,27.60
2023-01-19T08:32:11.016Z,20.90
2023-01-19T08:33:10.760Z,20.40
2023-01-19T08:34:10.743Z,23.80
2023-01-19T08:35:10.707Z,21.10
2023-01-19T08:36:10.565Z,20.20
2023-01-19T08:37:10.500Z,20.50
2023-01-19T08:38:10.454Z,22.40
2023-01-19T08:39:10.451Z,28.10
2023-01-19T08:40:10.380Z,21.80
2023-01-19T08:41:10.255Z,21.20
2023-01-19T08:42:10.388Z,29.90
2023-01-19T08:43:10.161Z,33.40
2023-01-19T08:44:35.748Z,21.20
2023-01-19T08:45:10.051Z,23.50
2023-01-19T08:46:09.960Z,21.50
2023-01-19T08:47:09.918Z,22.60
2023-01-19T08:48:09.811Z,26.60
2023-01-19T08:49:09.724Z,29.10
2023-01-19T08:50:09.755Z,29.80
2023-01-19T08:51:09.661Z,21.80
2023-01-19T08:52:09.625Z,21.70
2023-01-19T08:53:10.303Z,20.50
2023-01-19T08:54:09.504Z,25.20
2023-01-19T08:55:09.401Z,21.70
2023-01-19T08:56:09.377Z,22.60
2023-01-19T08:57:09.319Z,21.00
2023-01-19T08:58:09.169Z,21.20
2023-01-19T08:59:11.336Z,21.00
2023-01-19T09:00:09.040Z,21.90
2023-01-19T09:01:09.054Z,21.70
2023-01-19T09:04:27.294Z,20.70
2023-01-19T09:05:28.192Z,21.20
2023-01-19T09:06:28.124Z,21.10
2023-01-19T09:07:28.117Z,21.20
2023-01-19T09:08:28.045Z,23.10
2023-01-19T09:09:28.000Z,19.70
2023-01-19T09:10:27.883Z,27.60
2023-01-19T09:11:27.839Z,20.90
2023-01-19T09:12:27.796Z,23.80
2023-01-19T09:13:27.714Z,20.80
2023-01-19T09:14:27.695Z,21.70
2023-01-19T09:15:27.595Z,24.60
2023-01-19T09:16:27.592Z,23.10
2023-01-19T09:17:27.449Z,23.30
2023-01-19T09:18:27.377Z,20.90
2023-01-19T09:21:45.668Z,23.40
2023-01-19T09:22:46.641Z,26.60
2023-01-19T09:23:46.532Z,27.60
2023-01-19T09:24:46.469Z,43.10
2023-01-19T09:25:46.384Z,44.60
2023-01-19T09:26:46.342Z,39.70
2023-01-19T09:27:46.282Z,47.10
2023-01-19T09:28:46.244Z,48.30
2023-01-19T09:29:46.139Z,57.90
2023-01-19T09:30:46.160Z,50.20
2023-01-19T09:31:46.037Z,54.20
2023-01-19T09:32:46.263Z,65.60
2023-01-19T09:33:45.971Z,75.80
2023-01-19T09:34:45.878Z,67.80
2023-01-19T09:35:45.810Z,82.70
2023-01-19T09:36:45.687Z,79.10
2023-01-19T09:37:45.673Z,76.30
2023-01-19T09:38:45.653Z,87.70
2023-01-19T09:39:45.527Z,82.40
2023-01-19T09:40:45.458Z,76.40
2023-01-19T09:41:45.419Z,89.50
2023-01-19T09:42:45.374Z,66.60
2023-01-19T09:43:45.233Z,78.00
2023-01-19T09:44:45.297Z,87.30
2023-01-19T09:45:45.157Z,88.80
2023-01-19T09:46:45.242Z,93.20
2023-01-19T09:47:45.011Z,95.10
2023-01-19T09:48:44.996Z,88.70
2023-01-19T09:49:44.888Z,97.70
2023-01-19T09:50:44.817Z,84.60
2023-01-19T09:51:44.799Z,104.60
2023-01-19T09:52:44.676Z,89.40
2023-01-19T09:53:44.623Z,81.10
2023-01-19T09:54:44.612Z,89.00
2023-01-19T09:55:44.536Z,86.00
2023-01-19T09:56:44.426Z,83.30
2023-01-19T09:57:44.371Z,82.30
2023-01-19T09:58:44.337Z,89.50
2023-01-19T09:59:44.248Z,85.30
2023-01-19T10:00:44.302Z,88.70
2023-01-19T10:01:44.200Z,74.00
2023-01-19T10:02:44.122Z,93.30
2023-01-19T10:03:43.995Z,94.80
2023-01-19T10:04:43.962Z,90.40
2023-01-19T10:05:43.877Z,98.00
2023-01-19T10:06:43.823Z,93.80
2023-01-19T10:07:43.735Z,96.30
2023-01-19T10:08:43.671Z,98.60
2023-01-19T10:09:43.640Z,88.90
2023-01-19T10:10:43.569Z,67.70
2023-01-19T10:11:52.713Z,83.00
2023-01-19T10:12:43.486Z,88.60
2023-01-19T10:13:43.401Z,72.40
2023-01-19T10:14:44.545Z,70.60
2023-01-19T10:15:43.389Z,80.30
2023-01-19T10:16:43.140Z,84.30
2023-01-19T10:17:43.978Z,68.10
2023-01-19T10:18:43.019Z,71.20
2023-01-19T10:19:44.607Z,74.70
2023-01-19T10:20:42.925Z,64.00
2023-01-19T10:21:43.284Z,70.60
2023-01-19T10:22:43.159Z,74.30
2023-01-19T10:23:42.747Z,76.50
2023-01-19T10:24:42.655Z,70.40
2023-01-19T10:25:42.654Z,69.00
2023-01-19T10:26:42.810Z,75.40
2023-01-19T10:27:42.477Z,76.40
2023-01-19T10:28:42.905Z,67.50
2023-01-19T10:29:42.357Z,86.30
2023-01-19T10:30:42.317Z,78.70
2023-01-19T10:31:42.401Z,89.80
2023-01-19T10:32:43.366Z,84.90
2023-01-19T10:33:42.101Z,87.80
2023-01-19T10:34:42.036Z,103.10
2023-01-19T10:35:41.969Z,94.00
2023-01-19T10:36:41.920Z,102.60
2023-01-19T10:37:41.862Z,86.00
2023-01-19T10:38:41.799Z,75.20
2023-01-19T10:39:41.744Z,81.80
2023-01-19T10:40:41.698Z,86.50
2023-01-19T10:41:42.194Z,92.60
2023-01-19T10:42:41.561Z,91.80
2023-01-19T10:43:41.507Z,91.50
2023-01-19T10:44:41.445Z,95.00
2023-01-19T10:45:41.371Z,94.90
2023-01-19T10:46:41.304Z,104.20
2023-01-19T10:47:41.235Z,95.60
2023-01-19T10:48:42.171Z,109.50
2023-01-19T10:49:41.084Z,87.50
2023-01-19T10:50:43.420Z,109.50
2023-01-19T10:51:40.905Z,104.10
2023-01-19T10:52:40.926Z,100.10
2023-01-19T10:53:40.906Z,99.10
2023-01-19T10:54:40.763Z,114.40
2023-01-19T10:55:40.723Z,115.40
2023-01-19T10:56:40.644Z,108.70
2023-01-19T10:57:40.517Z,110.90
2023-01-19T10:58:40.536Z,116.80
2023-01-19T10:59:40.463Z,107.70
2023-01-19T11:00:40.454Z,111.70
2023-01-19T11:01:40.458Z,99.80
2023-01-19T11:02:40.378Z,108.30
2023-01-19T11:03:40.211Z,109.80
2023-01-19T11:04:40.106Z,103.50
2023-01-19T11:05:40.050Z,118.30
2023-01-19T11:06:40.001Z,147.80
2023-01-19T11:07:39.926Z,121.70
2023-01-19T11:08:39.866Z,119.40
2023-01-19T11:09:39.786Z,131.40
2023-01-19T11:10:39.693Z,127.20
2023-01-19T11:11:39.736Z,135.00
2023-01-19T11:12:39.644Z,136.50
2023-01-19T11:13:39.556Z,123.60
2023-01-19T11:14:39.500Z,146.40
2023-01-19T11:15:39.423Z,141.50
2023-01-19T11:16:39.339Z,142.20
2023-01-19T11:17:39.274Z,126.10
2023-01-19T11:18:39.193Z,139.00
2023-01-19T11:19:39.141Z,137.40
2023-01-19T11:20:39.237Z,130.60
2023-01-19T11:21:39.041Z,154.00
2023-01-19T11:22:38.960Z,128.80
2023-01-19T11:23:38.892Z,119.80
2023-01-19T11:24:39.658Z,114.00
2023-01-19T11:25:38.816Z,131.70
2023-01-19T11:27:02.112Z,111.50
2023-01-19T11:27:38.638Z,111.10
2023-01-19T11:28:38.597Z,135.90
2023-01-19T11:29:38.567Z,133.50
2023-01-19T11:30:38.473Z,137.90
2023-01-19T11:31:38.471Z,129.20
2023-01-19T11:32:38.353Z,119.20
2023-01-19T11:33:38.340Z,137.10
2023-01-19T11:34:38.218Z,104.40
2023-01-19T11:35:38.182Z,97.80
2023-01-19T11:36:38.077Z,107.40
2023-01-19T11:37:38.045Z,119.20
2023-01-19T11:38:37.954Z,125.70
2023-01-19T11:39:37.880Z,112.60
2023-01-19T11:40:37.827Z,95.30
2023-01-19T11:41:37.742Z,127.70
2023-01-19T11:42:37.659Z,87.50
2023-01-19T11:43:48.704Z,113.50
2023-01-19T11:44:37.642Z,112.90
2023-01-19T11:45:37.554Z,87.30
2023-01-19T11:46:37.448Z,112.10
2023-01-19T11:47:37.343Z,97.60
2023-01-19T11:48:37.334Z,94.10
2023-01-19T11:49:37.288Z,90.40
2023-01-19T11:50:37.162Z,93.70
2023-01-19T11:51:37.932Z,116.10
2023-01-19T11:52:37.056Z,99.30
2023-01-19T11:53:37.071Z,78.90
2023-01-19T11:54:36.971Z,111.30
2023-01-19T11:55:36.869Z,93.60
2023-01-19T11:56:36.850Z,83.80
2023-01-19T11:57:36.749Z,95.20
2023-01-19T11:58:36.719Z,68.60
2023-01-19T11:59:36.597Z,66.40
2023-01-19T12:00:36.514Z,85.90
2023-01-19T12:01:36.515Z,88.70
2023-01-19T12:02:36.399Z,70.80
2023-01-19T12:03:36.393Z,87.90
2023-01-19T12:04:36.254Z,95.40
2023-01-19T12:05:36.228Z,91.90
2023-01-19T12:06:36.134Z,61.40
2023-01-19T12:07:36.101Z,87.90
2023-01-19T12:08:36.006Z,114.20
2023-01-19T12:09:36.062Z,89.70
2023-01-19T12:10:35.903Z,114.10
2023-01-19T12:11:35.844Z,93.00
2023-01-19T12:12:35.807Z,84.70
2023-01-19T12:13:35.709Z,84.40
2023-01-19T12:14:35.707Z,94.40
2023-01-19T12:15:35.548Z,98.20
2023-01-19T12:16:35.605Z,95.10
2023-01-19T12:17:35.423Z,103.30
2023-01-19T12:18:35.382Z,100.80
2023-01-19T12:19:35.335Z,85.30
2023-01-19T12:20:35.243Z,121.60
2023-01-19T12:21:35.185Z,85.80
2023-01-19T12:22:35.103Z,94.00
2023-01-19T12:23:35.117Z,81.80
2023-01-19T12:24:35.106Z,83.60
2023-01-19T12:25:34.937Z,91.90
2023-01-19T12:26:34.926Z,85.50
2023-01-19T12:27:34.810Z,87.50
2023-01-19T12:28:34.783Z,97.80
2023-01-19T12:29:34.712Z,98.90
2023-01-19T12:30:34.732Z,126.70
2023-01-19T12:31:55.653Z,126.80
2023-01-19T12:32:34.640Z,149.40
2023-01-19T12:33:34.433Z,155.70
2023-01-19T12:34:34.379Z,166.90
2023-01-19T12:35:34.280Z,154.70
2023-01-19T12:36:34.250Z,176.30
2023-01-19T12:39:56.522Z,164.00
2023-01-19T12:40:53.485Z,167.60
2023-01-19T12:41:53.432Z,186.40
2023-01-19T12:42:53.336Z,198.90
2023-01-19T12:43:53.273Z,196.80
2023-01-19T12:44:53.189Z,174.30
2023-01-19T12:45:53.150Z,180.70
2023-01-19T12:46:53.070Z,210.90
2023-01-19T12:47:54.968Z,203.70
2023-01-19T12:48:52.989Z,192.00
2023-01-19T12:49:52.883Z,212.90
2023-01-19T12:50:52.844Z,206.50
2023-01-19T12:51:52.855Z,219.90
2023-01-19T12:52:52.692Z,218.10
2023-01-19T12:53:52.651Z,217.60
2023-01-19T12:54:52.559Z,237.10
2023-01-19T12:55:52.568Z,209.40
2023-01-19T12:56:52.502Z,209.00
2023-01-19T12:57:52.418Z,206.10
2023-01-19T12:58:52.335Z,228.70
2023-01-19T12:59:52.224Z,222.10
2023-01-19T13:00:52.272Z,197.10
2023-01-19T13:01:52.224Z,210.00
2023-01-19T13:02:52.165Z,234.90
2023-01-19T13:03:52.002Z,213.70
2023-01-19T13:04:51.934Z,240.30
2023-01-19T13:05:51.879Z,230.60
2023-01-19T13:06:51.803Z,250.60
2023-01-19T13:07:51.753Z,256.30
2023-01-19T13:08:51.714Z,240.40
2023-01-19T13:09:51.685Z,248.40
2023-01-19T13:10:51.548Z,259.30
2023-01-19T13:12:00.570Z,258.00
2023-01-19T13:12:51.497Z,231.70
2023-01-19T13:13:51.353Z,260.60
2023-01-19T13:14:51.301Z,265.20
2023-01-19T13:15:51.335Z,251.80
2023-01-19T13:16:51.186Z,286.60
2023-01-19T13:17:51.112Z,267.40
2023-01-19T13:18:51.068Z,245.40
2023-01-19T13:19:51.012Z,261.50
2023-01-19T13:20:50.898Z,268.50
2023-01-19T13:21:50.896Z,276.60
2023-01-19T13:22:50.844Z,270.60
2023-01-19T13:23:50.751Z,263.90
2023-01-19T13:24:50.715Z,261.70
2023-01-19T13:25:50.574Z,293.20
2023-01-19T13:26:50.543Z,293.40